Time;durP1;ratioP1;P1;durP2;ratioP2;P2;SDS_P1;SDS_P2;PMS_P1;PMS_P2;Temp;Humidity;BMP_temperature;BMP_pressure;BME280_temperature;BME280_humidity;BME280_pressure;Samples;Min_cycle;Max_cycle;Signal;HPM_P1;HPM_P2
2022/11/15 00:00:15;;;;;;;41.15;31.85;;;;;;;6.83;65.18;100207.50;5094294;28;20028;-87
2022/11/15 00:02:40;;;;;;;42.90;31.30;;;;;;;7.27;65.35;100274.38;5094003;28;20484;-87
2022/11/15 00:05:06;;;;;;;33.75;27.38;;;;;;;7.26;65.44;100290.25;5094495;28;20015;-85
2022/11/15 00:07:31;;;;;;;35.53;28.95;;;;;;;7.29;65.14;100288.19;5076101;28;20404;-86
2022/11/15 00:09:57;;;;;;;34.85;29.05;;;;;;;7.22;65.19;100273.13;5095527;28;20031;-86
2022/11/15 00:12:22;;;;;;;38.70;29.83;;;;;;;6.97;65.04;100246.44;5080842;28;20092;-85
2022/11/15 00:14:48;;;;;;;33.38;26.65;;;;;;;6.81;65.57;100217.28;5094475;28;20577;-86
2022/11/15 00:17:13;;;;;;;38.33;27.55;;;;;;;7.33;65.69;100315.00;5094142;28;20028;-84
2022/11/15 00:19:38;;;;;;;35.60;29.85;;;;;;;7.47;65.83;100322.50;5075794;28;20020;-86
2022/11/15 00:22:04;;;;;;;35.95;29.08;;;;;;;6.92;65.46;100208.44;5093685;28;20489;-86
2022/11/15 00:24:29;;;;;;;36.10;27.40;;;;;;;7.46;65.54;100285.84;5093835;28;20047;-84
2022/11/15 00:26:54;;;;;;;36.30;28.75;;;;;;;7.30;65.32;100260.94;5093106;28;20118;-85
2022/11/15 00:29:20;;;;;;;35.10;27.67;;;;;;;7.60;65.14;100295.94;5093746;28;20050;-86
2022/11/15 00:31:45;;;;;;;36.70;28.20;;;;;;;6.69;64.93;100139.66;5094046;28;20020;-85
2022/11/15 00:34:11;;;;;;;37.88;28.60;;;;;;;7.04;65.09;100199.47;5075620;28;20501;-85
2022/11/15 00:36:36;;;;;;;44.90;32.13;;;;;;;7.43;64.80;100242.31;5093725;28;20020;-86
2022/11/15 00:39:05;;;;;;;45.88;33.60;;;;;;;7.59;64.95;100263.56;5093629;28;20030;-85
2022/11/15 00:41:31;;;;;;;50.38;35.03;;;;;;;7.18;65.11;100190.31;5093701;28;20495;-86
2022/11/15 00:43:56;;;;;;;54.58;35.40;;;;;;;7.31;65.39;100196.13;5075327;28;20036;-86
2022/11/15 00:46:22;;;;;;;61.45;41.08;;;;;;;7.79;66.23;100276.66;5093302;28;20028;-86
2022/11/15 00:48:47;;;;;;;61.28;38.45;;;;;;;7.38;66.45;100196.38;5093351;28;20024;-85
2022/11/15 00:51:12;;;;;;;68.78;40.88;;;;;;;7.67;66.38;100262.03;5093099;28;20040;-86
2022/11/15 00:53:38;;;;;;;64.65;39.03;;;;;;;7.27;66.58;100165.84;5075269;28;20031;-86
2022/11/15 00:56:03;;;;;;;73.18;41.80;;;;;;;7.29;66.55;100148.16;5093197;28;20381;-86
2022/11/15 00:58:29;;;;;;;96.75;48.17;;;;;;;7.74;67.22;100245.56;5075010;28;20028;-85
2022/11/15 01:00:54;;;;;;;118.80;51.10;;;;;;;8.09;67.56;100301.91;5093008;28;20567;-85
2022/11/15 01:03:20;;;;;;;96.55;49.00;;;;;;;8.08;68.06;100285.28;5092993;28;20065;-86
2022/11/15 01:05:45;;;;;;;83.65;44.13;;;;;;;8.12;68.03;100283.22;5093011;28;20099;-86
2022/11/15 01:08:15;;;;;;;114.90;49.85;;;;;;;8.12;68.22;100277.94;5074655;28;20400;-86
2022/11/15 01:10:41;;;;;;;109.43;50.42;;;;;;;8.17;68.55;100275.72;5092855;28;20027;-86
2022/11/15 01:13:07;;;;;;;113.63;50.08;;;;;;;8.20;68.54;100273.66;5092929;28;20024;-85
2022/11/15 01:15:33;;;;;;;107.72;46.13;;;;;;;8.04;68.60;100254.16;5093143;28;20034;-86
2022/11/15 01:17:58;;;;;;;82.05;42.53;;;;;;;7.88;68.78;100234.56;5092758;28;20133;-85
2022/11/15 01:20:23;;;;;;;110.40;45.90;;;;;;;8.26;69.19;100278.34;5074586;28;20027;-85
2022/11/15 01:22:49;;;;;;;155.48;48.60;;;;;;;7.92;69.47;100208.81;5074508;28;20501;-85
2022/11/15 01:25:14;;;;;;;170.85;49.17;;;;;;;7.60;69.80;100149.59;5093394;28;20099;-85
2022/11/15 01:27:39;;;;;;;188.65;50.72;;;;;;;7.50;70.00;100151.44;5074700;28;20055;-85
2022/11/15 01:30:06;;;;;;;107.30;42.67;;;;;;;7.73;70.09;100179.97;5092731;28;20028;-85
2022/11/15 01:32:31;;;;;;;101.78;44.00;;;;;;;7.88;70.20;100210.09;5074324;28;20028;-85
2022/11/15 01:34:57;;;;;;;144.90;42.38;;;;;;;7.48;70.74;100129.72;5092680;28;20494;-86
2022/11/15 01:37:22;;;;;;;79.55;37.95;;;;;;;7.56;70.72;100142.97;5092526;28;20017;-85
2022/11/15 01:39:47;;;;;;;153.63;42.13;;;;;;;8.27;71.37;100258.94;5074707;28;20504;-85
2022/11/15 01:42:13;;;;;;;73.25;36.75;;;;;;;8.42;71.23;100264.56;5092595;28;20054;-85
2022/11/15 01:44:39;;;;;;;102.88;38.25;;;;;;;8.47;71.06;100270.22;5074305;28;20027;-85
2022/11/15 01:47:13;;;;;;;79.05;34.83;;;;;;;7.74;71.24;100139.59;5074245;28;20081;-86
2022/11/15 01:49:43;;;;;;;66.05;34.20;;;;;;;8.36;71.29;100254.63;5093212;28;20020;-85
2022/11/15 01:52:12;;;;;;;81.75;32.80;;;;;;;7.86;71.48;100160.28;5092192;28;20058;-85
2022/11/15 01:54:38;;;;;;;100.10;35.75;;;;;;;8.08;71.43;100177.47;5092203;28;20031;-84
2022/11/15 01:57:12;;;;;;;77.38;35.83;;;;;;;8.07;71.01;100169.72;5092210;28;20020;-85
2022/11/15 01:59:41;;;;;;;75.65;37.33;;;;;;;8.38;71.09;100217.66;5092075;28;20024;-85
2022/11/15 02:02:07;;;;;;;54.53;30.50;;;;;;;8.64;71.40;100249.34;5092234;28;20024;-85
2022/11/15 02:04:44;;;;;;;63.83;35.40;;;;;;;7.10;71.06;99993.28;5092240;28;20439;-85
2022/11/15 02:07:13;;;;;;;68.90;34.53;;;;;;;8.68;71.22;100246.28;5092212;28;20016;-85
2022/11/15 02:09:39;;;;;;;80.07;37.97;;;;;;;8.68;71.07;100245.44;5092259;28;20116;-85
2022/11/15 02:12:07;;;;;;;76.85;40.03;;;;;;;8.02;71.59;100135.16;5092083;28;20028;-85
2022/11/15 02:14:33;;;;;;;81.82;39.10;;;;;;;7.81;71.44;100112.56;5073782;28;20098;-86
2022/11/15 02:17:28;;;;;;;80.43;39.15;;;;;;;8.37;71.81;100205.47;5092208;28;20106;-86
2022/11/15 02:20:20;;;;;;;81.80;37.63;;;;;;;8.67;71.74;100238.53;5092314;28;20027;-85
2022/11/15 02:23:14;;;;;;;82.97;39.70;;;;;;;8.18;71.48;100162.50;5091793;28;20013;-86
2022/11/15 02:26:17;;;;;;;103.85;39.15;;;;;;;8.67;71.75;100238.53;5073720;28;20511;-86
2022/11/15 02:29:11;;;;;;;86.43;38.78;;;;;;;8.66;72.28;100232.44;5091981;28;20455;-86
2022/11/15 02:31:51;;;;;;;86.55;40.78;;;;;;;8.69;71.94;100229.50;5082205;28;20093;-85
2022/11/15 02:34:23;;;;;;;78.38;39.75;;;;;;;8.71;71.86;100232.81;5073505;28;20074;-86
2022/11/15 02:36:54;;;;;;;83.85;38.83;;;;;;;8.64;72.02;100250.19;5073624;28;20493;-86
2022/11/15 02:39:37;;;;;;;85.05;38.67;;;;;;;8.74;72.06;100239.59;5084532;28;20020;-84
2022/11/15 02:45:05;;;;;;;219.93;47.72;;;;;;;8.52;72.04;100219.78;5092727;28;20047;-86
2022/11/15 02:47:37;;;;;;;79.60;36.08;;;;;;;8.16;72.39;100153.88;5074524;28;20024;-85
2022/11/15 02:50:06;;;;;;;;;;;;;;;8.53;73.02;100232.78;5092249;28;20063;-86
2022/11/15 02:52:31;;;;;;;68.43;32.53;;;;;;;8.22;72.32;100173.53;5095747;28;19984;-85
2022/11/15 02:54:59;;;;;;;166.85;33.60;;;;;;;7.94;72.11;100134.09;5077530;28;20488;-85
2022/11/15 02:57:37;;;;;;;148.68;33.42;;;;;;;8.66;72.52;100235.06;5095340;28;20055;-85
2022/11/15 03:00:05;;;;;;;150.13;32.58;;;;;;;8.63;72.84;100234.53;5077054;28;20024;-85
2022/11/15 03:02:37;;;;;;;138.25;32.65;;;;;;;8.63;72.57;100234.53;5095277;28;20024;-85
2022/11/15 03:05:19;;;;;;;;;;;;;;;8.43;73.04;100229.41;5077645;28;20045;-85
2022/11/15 03:08:02;;;;;;;79.15;31.98;;;;;;;8.12;73.12;100178.00;5095253;28;20365;-85
2022/11/15 03:10:52;;;;;;;134.82;36.05;;;;;;;8.45;73.00;100229.25;5077127;28;20024;-86
2022/11/15 03:13:47;;;;;;;73.68;34.35;;;;;;;7.59;73.36;100121.66;5077061;28;20062;-85
2022/11/15 03:16:38;;;;;;;77.10;31.75;;;;;;;8.44;72.92;100227.59;5077025;28;20027;-86
2022/11/15 03:19:31;;;;;;;61.15;30.00;;;;;;;8.44;73.01;100228.41;5095319;28;20024;-86
2022/11/15 03:22:00;;;;;;;80.05;31.63;;;;;;;8.36;72.92;100212.53;5095005;28;20020;-85
2022/11/15 03:24:29;;;;;;;59.13;31.45;;;;;;;8.38;73.04;100201.88;5095047;28;20066;-85
2022/11/15 03:26:56;;;;;;;56.88;29.52;;;;;;;8.47;73.10;100224.66;5095153;28;20031;-85
2022/11/15 03:29:32;;;;;;;56.90;28.77;;;;;;;7.78;72.42;100099.72;5095050;28;20017;-85
2022/11/15 03:32:02;;;;;;;47.78;28.50;;;;;;;8.13;72.67;100162.06;5095033;28;20103;-86
2022/11/15 03:34:49;;;;;;;55.22;31.83;;;;;;;8.59;72.46;100226.13;5095134;28;20020;-85
2022/11/15 03:37:17;;;;;;;55.30;30.83;;;;;;;7.70;72.66;100075.13;5076917;28;20036;-86
2022/11/15 03:39:43;;;;;;;55.92;33.80;;;;;;;8.54;72.79;100221.28;5095272;28;20085;-85
2022/11/15 03:42:26;;;;;;;62.10;34.63;;;;;;;8.36;72.05;100180.13;5076508;28;20023;-85
2022/11/15 03:45:02;;;;;;;51.75;31.58;;;;;;;8.58;72.22;100222.66;5076495;28;20019;-85
2022/11/15 03:47:34;;;;;;;49.10;31.58;;;;;;;7.95;71.88;100111.25;5094459;28;20084;-86
2022/11/15 03:50:02;;;;;;;;;;;;;;;8.48;72.76;100211.34;5094957;28;20098;-85
2022/11/15 03:52:32;;;;;;;42.03;27.38;;;;;;;8.60;72.30;100209.34;5076081;28;19972;-85
2022/11/15 03:55:01;;;;;;;41.38;26.92;;;;;;;8.33;72.27;100190.94;5094465;28;20028;-85
2022/11/15 03:57:27;;;;;;;41.28;27.63;;;;;;;8.51;71.85;100176.03;5094196;28;20012;-84
2022/11/15 03:59:52;;;;;;;41.08;26.92;;;;;;;8.15;71.83;100111.97;5094342;28;20031;-85
2022/11/15 04:02:17;;;;;;;43.78;28.70;;;;;;;8.30;71.67;100128.91;5094153;28;20020;-85
2022/11/15 04:04:43;;;;;;;36.97;25.70;;;;;;;8.03;71.87;100098.19;5076005;28;20035;-85
2022/11/15 04:07:08;;;;;;;35.85;25.90;;;;;;;8.36;71.69;100141.50;5076107;28;20020;-86
2022/11/15 04:10:01;;;;;;;68.93;41.35;;;;;;;8.75;71.47;100207.03;5094071;28;20513;-85
2022/11/15 04:12:30;;;;;;;48.22;31.63;;;;;;;8.53;71.82;100176.69;5093828;28;20051;-85
2022/11/15 04:15:09;;;;;;;41.40;28.13;;;;;;;8.22;71.58;100128.81;5094107;28;20467;-85
2022/11/15 04:17:42;;;;;;;36.63;26.80;;;;;;;8.63;71.79;100197.69;5093762;28;20091;-85
2022/11/15 04:25:46;;;;;;;31.77;24.25;;;;;;;8.56;71.32;100182.50;5094053;28;20043;-85
2022/11/15 04:28:11;;;;;;;35.08;24.83;;;;;;;8.06;71.57;100076.84;5093659;28;20103;-85
2022/11/15 04:30:37;;;;;;;36.92;26.20;;;;;;;8.82;71.48;100181.75;5093495;28;20028;-86
2022/11/15 04:33:03;;;;;;;36.13;27.23;;;;;;;8.52;71.33;100138.19;5075312;28;20016;-85
2022/11/15 04:35:29;;;;;;;33.00;25.73;;;;;;;8.66;71.19;100153.47;5093391;28;20016;-85
2022/11/15 04:37:56;;;;;;;32.83;25.77;;;;;;;8.52;71.00;100138.19;5093767;28;20032;-85
2022/11/15 04:40:21;;;;;;;30.42;23.73;;;;;;;8.39;71.22;100098.28;5093532;28;20028;-85
2022/11/15 04:42:46;;;;;;;29.60;24.45;;;;;;;8.69;71.01;100147.06;5093923;28;20086;-85
2022/11/15 04:45:12;;;;;;;27.02;22.23;;;;;;;8.27;71.25;100072.16;5075359;28;20028;-85
2022/11/15 04:47:37;;;;;;;29.33;23.85;;;;;;;8.94;71.03;100185.00;5093420;28;20085;-85
2022/11/15 04:50:03;;;;;;;39.53;27.00;;;;;;;8.63;71.05;100130.06;5093451;28;20103;-85
2022/11/15 04:52:29;;;;;;;26.63;23.25;;;;;;;8.47;71.08;100108.88;5074923;28;20020;-86
2022/11/15 04:54:54;;;;;;;28.85;24.00;;;;;;;8.70;71.06;100141.66;5093126;28;20024;-85
2022/11/15 04:57:20;;;;;;;31.90;25.20;;;;;;;8.57;70.93;100134.13;5075147;28;20024;-85
2022/11/15 04:59:46;;;;;;;28.60;23.40;;;;;;;8.83;70.93;100165.78;5093177;28;20028;-85
2022/11/15 05:02:11;;;;;;;31.15;24.30;;;;;;;9.03;70.84;100199.88;5075006;28;20024;-85
2022/11/15 05:04:36;;;;;;;32.58;26.17;;;;;;;7.94;70.61;99999.16;5075037;28;20111;-84
2022/11/15 05:07:04;;;;;;;29.58;24.77;;;;;;;8.81;70.72;100135.31;5074581;28;20058;-85
2022/11/15 05:09:29;;;;;;;29.75;24.13;;;;;;;8.17;70.96;100052.97;5071057;28;20083;-85
2022/11/15 05:11:55;;;;;;;31.02;25.60;;;;;;;8.40;70.74;100079.72;5071169;28;20052;-84
2022/11/15 05:14:20;;;;;;;30.38;25.13;;;;;;;8.82;70.86;100155.41;5072056;28;20085;-85
2022/11/15 05:16:46;;;;;;;36.50;27.55;;;;;;;9.09;70.36;100200.09;5072610;28;20028;-85
2022/11/15 05:19:11;;;;;;;38.03;29.65;;;;;;;8.84;70.47;100135.84;5072926;28;20017;-84
2022/11/15 05:21:37;;;;;;;33.97;29.77;;;;;;;8.79;70.39;100138.13;5072940;28;20020;-84
2022/11/15 05:24:03;;;;;;;36.58;29.30;;;;;;;8.86;70.45;100127.78;5071110;28;20020;-83
2022/11/15 05:26:28;;;;;;;35.47;30.52;;;;;;;9.04;70.57;100177.84;5072506;28;20178;-84
2022/11/15 05:28:55;;;;;;;37.10;29.63;;;;;;;8.72;70.48;100102.84;5072423;28;20017;-83
2022/11/15 05:31:21;;;;;;;32.13;27.65;;;;;;;8.39;70.37;100045.66;5072398;28;20021;-85
2022/11/15 05:33:50;;;;;;;39.08;32.50;;;;;;;8.63;70.43;100101.13;5070972;28;20404;-84
2022/11/15 05:36:33;;;;;;;35.33;29.23;;;;;;;8.61;70.46;100087.28;5070950;28;20022;-85
2022/11/15 05:38:58;;;;;;;37.45;29.90;;;;;;;9.03;70.50;100190.19;5072284;28;20108;-84
2022/11/15 05:41:30;;;;;;;45.70;37.05;;;;;;;8.60;70.13;100088.25;5071328;28;20162;-84
2022/11/15 05:43:57;;;;;;;44.67;35.42;;;;;;;8.82;70.17;100127.28;5070988;28;20493;-84
2022/11/15 05:46:22;;;;;;;46.03;33.97;;;;;;;9.01;70.62;100149.19;5070973;28;20052;-84
2022/11/15 05:48:51;;;;;;;52.00;37.05;;;;;;;9.23;70.28;100189.03;5070845;28;20117;-85
2022/11/15 05:51:19;;;;;;;46.92;35.47;;;;;;;9.01;70.40;100133.38;5072197;28;20166;-85
2022/11/15 05:53:45;;;;;;;46.45;34.35;;;;;;;9.07;70.23;100156.47;5084491;28;20020;-85
2022/11/15 05:56:11;;;;;;;52.70;34.65;;;;;;;8.56;70.46;100081.66;5071940;28;20406;-85
2022/11/15 05:58:37;;;;;;;45.25;35.90;;;;;;;9.40;70.21;100200.50;5071757;28;20505;-85
2022/11/15 06:01:04;;;;;;;44.72;33.30;;;;;;;8.99;70.28;100138.78;5071725;28;20023;-85
2022/11/15 06:03:29;;;;;;;46.47;35.88;;;;;;;9.06;70.54;100173.25;5071649;28;20055;-85
2022/11/15 06:05:56;;;;;;;48.50;37.55;;;;;;;8.34;70.15;100016.34;5071729;28;20462;-85
2022/11/15 06:08:21;;;;;;;48.08;37.97;;;;;;;8.69;70.44;100074.19;5080609;28;20054;-85
2022/11/15 06:10:47;;;;;;;44.70;33.72;;;;;;;8.97;70.23;100119.69;5091656;28;20020;-85
2022/11/15 06:13:12;;;;;;;54.80;38.55;;;;;;;9.44;70.30;100204.47;5073624;28;20561;-85
2022/11/15 06:15:38;;;;;;;52.17;37.05;;;;;;;9.28;70.31;100164.84;5073630;28;20098;-85
2022/11/15 06:18:03;;;;;;;54.53;39.25;;;;;;;8.72;70.73;100080.94;5085699;28;20108;-85
2022/11/15 06:20:29;;;;;;;52.35;38.22;;;;;;;9.53;70.40;100216.72;5053149;28;20038;-85
2022/11/15 06:23:02;;;;;;;59.45;38.65;;;;;;;9.00;70.59;100127.28;5071280;28;20104;-84
2022/11/15 06:25:28;;;;;;;57.83;37.83;;;;;;;9.55;70.59;100220.03;5069804;28;20104;-84
2022/11/15 06:27:55;;;;;;;58.42;38.30;;;;;;;9.55;71.05;100213.94;5053134;28;20116;-85
2022/11/15 06:30:22;;;;;;;62.78;38.15;;;;;;;9.18;70.71;100169.38;5071431;28;20035;-85
2022/11/15 06:32:48;;;;;;;61.30;39.67;;;;;;;9.13;70.64;100132.13;5070714;28;20093;-85
2022/11/15 06:35:14;;;;;;;59.80;37.95;;;;;;;9.59;70.96;100215.28;5053102;28;20032;-85
2022/11/15 06:37:40;;;;;;;62.85;38.10;;;;;;;9.59;70.96;100209.19;5071258;28;20024;-85
2022/11/15 06:40:07;;;;;;;69.70;41.15;;;;;;;9.18;71.35;100150.94;5071311;28;20553;-85
2022/11/15 06:42:32;;;;;;;71.85;41.03;;;;;;;9.34;71.01;100155.50;5071248;28;20497;-84
2022/11/15 06:44:58;;;;;;;76.88;41.03;;;;;;;9.27;71.19;100150.00;5071161;28;20029;-85
2022/11/15 06:47:23;;;;;;;68.78;39.17;;;;;;;9.29;71.20;100149.88;5053097;28;20400;-85
2022/11/15 06:49:48;;;;;;;85.47;45.10;;;;;;;9.43;71.06;100160.66;5071056;28;20029;-85
2022/11/15 06:52:14;;;;;;;76.93;45.03;;;;;;;8.82;71.21;100053.56;5070736;28;20031;-86
2022/11/15 06:54:39;;;;;;;81.28;45.55;;;;;;;9.40;71.31;100153.06;5070892;28;20107;-85
2022/11/15 06:57:05;;;;;;;72.63;43.33;;;;;;;9.43;71.11;100144.84;5071242;28;20013;-86
2022/11/15 06:59:30;;;;;;;63.92;36.63;;;;;;;9.13;70.86;100101.34;5051817;28;20414;-84
2022/11/15 07:01:55;;;;;;;79.97;43.38;;;;;;;9.10;71.27;100083.22;5063411;28;20025;-84
2022/11/15 07:04:21;;;;;;;82.18;44.53;;;;;;;9.85;70.94;100194.22;5064325;28;20021;-86
2022/11/15 07:06:47;;;;;;;81.80;43.25;;;;;;;9.30;70.78;100091.75;5070932;28;20031;-85
2022/11/15 07:09:13;;;;;;;90.10;45.08;;;;;;;9.53;70.97;100128.91;5069386;28;20055;-85
2022/11/15 07:11:38;;;;;;;94.82;48.42;;;;;;;8.84;71.24;100001.56;5070760;28;20029;-85
2022/11/15 07:14:03;;;;;;;77.60;40.53;;;;;;;9.66;71.12;100139.03;5069354;28;20035;-85
2022/11/15 07:16:29;;;;;;;81.85;45.28;;;;;;;9.73;71.02;100137.44;5070561;28;20052;-85
2022/11/15 07:18:55;;;;;;;77.20;40.42;;;;;;;9.79;71.08;100153.47;5070512;28;20459;-85
2022/11/15 07:21:21;;;;;;;77.03;40.70;;;;;;;9.64;70.85;100115.47;5070445;28;20024;-85
2022/11/15 07:23:46;;;;;;;77.32;42.70;;;;;;;9.58;71.31;100102.91;5070541;28;20082;-85
2022/11/15 07:26:12;;;;;;;97.40;50.45;;;;;;;9.86;71.40;100140.47;5070739;28;20341;-86
2022/11/15 07:28:37;;;;;;;74.97;43.83;;;;;;;10.18;71.49;100201.28;5069397;28;20029;-83
2022/11/15 07:31:07;;;;;;;89.90;44.10;;;;;;;10.21;71.34;100200.16;5068846;28;20025;-84
2022/11/15 07:33:33;;;;;;;81.15;41.22;;;;;;;9.69;71.35;100130.84;5063407;28;20524;-84
2022/11/15 07:36:01;;;;;;;79.18;42.85;;;;;;;9.44;71.30;100071.88;5051309;28;20029;-84
2022/11/15 07:38:28;;;;;;;85.93;44.95;;;;;;;10.21;71.12;100194.06;5060286;28;20028;-84
2022/11/15 07:41:01;;;;;;;85.25;44.67;;;;;;;9.98;71.77;100148.94;5073656;28;20035;-85
2022/11/15 07:43:32;;;;;;;74.70;42.97;;;;;;;10.12;71.68;100158.88;5073943;28;20035;-84
2022/11/15 07:45:58;;;;;;;76.28;42.25;;;;;;;9.45;71.10;100045.38;5067809;28;20111;-85
2022/11/15 07:48:23;;;;;;;73.07;37.15;;;;;;;9.97;71.06;100124.34;5066256;28;20103;-84
2022/11/15 07:50:49;;;;;;;66.20;35.65;;;;;;;10.48;71.38;100199.13;5068737;28;20382;-84
2022/11/15 07:53:14;;;;;;;65.97;37.70;;;;;;;9.99;71.27;100122.38;5056613;28;20024;-84
2022/11/15 07:55:41;;;;;;;62.67;36.70;;;;;;;10.37;71.75;100175.63;5074262;28;20032;-84
2022/11/15 07:58:09;;;;;;;59.47;36.15;;;;;;;10.35;71.21;100172.31;5072897;28;20025;-84
2022/11/15 08:00:35;;;;;;;66.03;37.70;;;;;;;10.57;71.55;100195.50;5067104;28;20032;-84
2022/11/15 08:03:10;;;;;;;60.58;34.55;;;;;;;10.66;71.23;100204.25;5065631;28;20028;-85
2022/11/15 08:05:36;;;;;;;66.68;36.83;;;;;;;10.12;71.20;100116.66;5067539;28;20046;-84
2022/11/15 08:08:02;;;;;;;60.63;36.42;;;;;;;10.72;71.42;100200.97;5073296;28;20489;-85
2022/11/15 08:10:28;;;;;;;68.10;39.22;;;;;;;10.43;71.19;100145.97;5072322;28;20056;-84
2022/11/15 08:13:07;;;;;;;70.03;40.50;;;;;;;10.43;71.49;100144.16;5081784;28;20062;-84
2022/11/15 08:15:34;;;;;;;66.40;39.20;;;;;;;10.08;70.87;100091.56;5066108;28;20028;-85
2022/11/15 08:18:05;;;;;;;71.15;40.97;;;;;;;10.44;70.71;100124.69;5070892;28;20111;-85
2022/11/15 08:20:31;;;;;;;62.30;37.22;;;;;;;10.91;71.29;100200.66;5072245;28;20056;-84
2022/11/15 08:22:58;;;;;;;76.18;43.00;;;;;;;10.31;71.15;100103.19;5073107;28;20040;-83
2022/11/15 08:25:26;;;;;;;72.55;42.78;;;;;;;10.14;71.09;100072.47;5068265;28;20417;-85
2022/11/15 08:27:56;;;;;;;66.13;37.65;;;;;;;10.53;71.15;100129.97;5060818;28;20032;-84
2022/11/15 08:30:22;;;;;;;56.47;35.83;;;;;;;10.54;71.05;100134.28;5064565;28;20499;-84
2022/11/15 08:32:48;;;;;;;51.17;33.67;;;;;;;9.37;69.95;99942.56;5070995;28;20032;-84
2022/11/15 08:35:14;;;;;;;69.47;40.28;;;;;;;10.78;70.38;100150.97;5070171;28;20024;-84
2022/11/15 08:37:39;;;;;;;66.50;38.85;;;;;;;10.89;71.61;100210.56;5072500;28;20474;-84
2022/11/15 08:40:06;;;;;;;59.58;37.50;;;;;;;10.74;70.79;100154.09;5067496;28;20408;-84
2022/11/15 08:42:31;;;;;;;54.38;35.17;;;;;;;10.29;71.06;100083.22;5068191;28;20500;-85
2022/11/15 08:44:57;;;;;;;60.30;38.47;;;;;;;10.49;70.95;100109.19;5062910;28;20027;-84
2022/11/15 08:47:22;;;;;;;53.58;35.10;;;;;;;10.89;70.92;100170.13;5065613;28;20024;-83
2022/11/15 08:49:47;;;;;;;53.47;35.50;;;;;;;10.16;70.61;100038.81;5056920;28;20025;-83
2022/11/15 08:52:14;;;;;;;55.33;35.85;;;;;;;10.64;70.72;100111.19;5058387;28;20025;-84
2022/11/15 08:54:39;;;;;;;63.25;41.60;;;;;;;10.34;70.08;100046.63;5067207;28;20036;-84
2022/11/15 08:57:06;;;;;;;55.85;37.35;;;;;;;10.86;70.91;100141.38;5069238;28;20421;-84
2022/11/15 08:59:31;;;;;;;52.95;35.28;;;;;;;11.18;70.03;100167.00;5065885;28;20107;-83
2022/11/15 09:01:57;;;;;;;51.53;34.70;;;;;;;10.33;70.11;100015.94;5060826;28;20773;-83
2022/11/15 09:04:22;;;;;;;64.95;40.25;;;;;;;10.05;70.62;99960.81;5066148;28;20024;-84
2022/11/15 09:06:48;;;;;;;54.67;36.03;;;;;;;10.93;70.34;100100.09;5071171;28;20025;-84
2022/11/15 09:09:13;;;;;;;58.35;37.95;;;;;;;10.98;70.30;100114.47;5071629;28;20048;-83
2022/11/15 09:11:38;;;;;;;56.97;39.25;;;;;;;10.98;70.43;100111.81;5067422;28;20413;-83
2022/11/15 09:14:04;;;;;;;55.95;38.90;;;;;;;10.76;70.30;100067.59;5063383;28;20028;-83
2022/11/15 09:16:31;;;;;;;52.28;37.03;;;;;;;11.35;70.52;100147.47;5063407;28;20028;-83
2022/11/15 09:18:56;;;;;;;49.55;35.28;;;;;;;11.24;70.06;100124.88;5062190;28;20025;-83
2022/11/15 09:21:22;;;;;;;56.40;38.88;;;;;;;11.03;70.24;100092.81;5069458;28;20028;-84
2022/11/15 09:23:51;;;;;;;62.33;41.50;;;;;;;11.01;69.92;100063.09;5068687;28;20099;-84
2022/11/15 09:26:17;;;;;;;48.63;35.80;;;;;;;11.54;70.08;100125.94;5065349;28;20500;-84
2022/11/15 09:28:43;;;;;;;58.20;40.42;;;;;;;10.87;69.78;100019.72;5064426;28;20032;-84
2022/11/15 09:31:09;;;;;;;54.30;37.60;;;;;;;10.95;70.25;100061.13;5062006;28;20033;-85
2022/11/15 09:33:35;;;;;;;56.15;37.13;;;;;;;10.73;69.83;99981.59;5068466;28;20087;-85
2022/11/15 09:36:02;;;;;;;56.45;37.65;;;;;;;11.58;69.85;100108.75;5070603;28;20012;-85
2022/11/15 09:38:28;;;;;;;49.83;34.50;;;;;;;10.64;69.52;99966.75;5070345;28;20103;-85
2022/11/15 09:41:11;;;;;;;48.38;34.33;;;;;;;11.60;69.67;100103.28;5063228;28;20487;-84
2022/11/15 09:44:07;;;;;;;53.70;34.50;;;;;;;11.64;69.34;100105.41;5044373;28;20028;-83
2022/11/15 09:47:10;;;;;;;61.13;39.45;;;;;;;11.69;69.63;100086.38;5054673;28;20028;-82
2022/11/15 09:49:35;;;;;;;46.83;33.83;;;;;;;10.47;69.56;99889.41;5067560;28;20497;-83
2022/11/15 09:52:01;;;;;;;50.72;37.13;;;;;;;11.29;69.08;99995.66;5070652;28;20043;-83
2022/11/15 09:54:36;;;;;;;56.83;39.40;;;;;;;11.46;68.84;100021.03;5067959;28;20067;-83
2022/11/15 09:57:14;;;;;;;60.83;43.08;;;;;;;11.63;68.80;100029.72;5064353;28;20115;-82
2022/11/15 10:00:02;;;;;;;64.82;45.33;;;;;;;11.97;68.80;100068.28;5066551;28;20054;-83
2022/11/15 10:03:01;;;;;;;65.35;43.92;;;;;;;12.01;68.78;100070.41;5058096;28;20444;-83
2022/11/15 10:05:29;;;;;;;79.40;56.63;;;;;;;11.50;68.47;99976.56;5067164;28;20016;-81
2022/11/15 10:08:05;;;;;;;69.55;47.92;;;;;;;11.53;68.62;99944.47;5062351;28;20036;-82
2022/11/15 10:10:33;;;;;;;74.88;49.85;;;;;;;12.27;67.92;100054.19;5071601;28;20112;-82
2022/11/15 10:12:59;;;;;;;69.68;47.90;;;;;;;11.63;68.12;99939.78;5062410;28;20024;-82
2022/11/15 10:15:25;;;;;;;70.60;48.80;;;;;;;12.04;67.71;100009.19;5059647;28;20112;-82
2022/11/15 10:17:57;;;;;;;73.22;47.65;;;;;;;12.47;67.59;100049.25;5056343;28;20032;-82
2022/11/15 10:20:36;;;;;;;68.07;46.40;;;;;;;12.52;67.27;100046.06;5070007;28;20031;-82
2022/11/15 10:23:06;;;;;;;74.53;48.90;;;;;;;12.49;67.21;100038.47;5059580;28;20079;-82
2022/11/15 10:25:34;;;;;;;62.30;40.92;;;;;;;11.04;67.17;99865.41;5051090;28;20071;-82
2022/11/15 10:28:09;;;;;;;61.55;42.28;;;;;;;12.50;67.12;100078.03;5062088;28;20057;-82
2022/11/15 10:30:47;;;;;;;59.47;42.05;;;;;;;12.57;66.60;100033.94;5064696;28;20020;-82
2022/11/15 10:33:12;;;;;;;77.65;48.10;;;;;;;12.65;66.42;100033.06;5060481;28;20063;-82
2022/11/15 10:35:37;;;;;;;70.20;48.15;;;;;;;11.92;66.56;99903.94;5051578;28;20063;-82
2022/11/15 10:38:11;;;;;;;67.07;45.97;;;;;;;12.69;66.44;100026.41;5062555;28;20051;-81
2022/11/15 10:40:39;;;;;;;59.38;39.03;;;;;;;12.40;66.58;99974.16;5070944;28;20096;-81
2022/11/15 10:43:18;;;;;;;68.35;44.80;;;;;;;12.60;66.16;100003.59;5062899;28;20043;-81
2022/11/15 10:45:45;;;;;;;54.63;39.63;;;;;;;12.80;66.21;100019.84;5063723;28;20029;-82
2022/11/15 10:48:13;;;;;;;64.70;42.25;;;;;;;12.90;65.75;100012.44;5066362;28;20489;-81
2022/11/15 10:50:41;;;;;;;69.10;47.63;;;;;;;12.29;65.43;99911.88;5064716;28;20056;-82
2022/11/15 10:53:37;;;;;;;56.10;41.25;;;;;;;12.99;65.35;100014.84;5070685;28;20032;-82
2022/11/15 10:56:08;;;;;;;64.32;45.83;;;;;;;12.83;64.88;99979.72;5061538;28;20021;-81
2022/11/15 10:58:41;;;;;;;63.22;45.33;;;;;;;13.12;65.04;100002.78;5062904;28;20051;-81
2022/11/15 11:01:16;;;;;;;55.03;42.03;;;;;;;13.04;64.50;99991.25;5070796;28;20059;-81
2022/11/15 11:03:43;;;;;;;63.17;44.13;;;;;;;13.19;64.56;100006.38;5066282;28;20116;-81
2022/11/15 11:06:15;;;;;;;63.70;44.60;;;;;;;12.65;64.35;99945.63;5073585;28;20516;-82
2022/11/15 11:08:58;;;;;;;58.72;40.65;;;;;;;12.98;64.26;99969.97;5050678;28;20091;-82
2022/11/15 11:11:24;;;;;;;64.07;42.72;;;;;;;12.92;64.27;99958.25;5056079;28;20029;-81
2022/11/15 11:13:50;;;;;;;64.07;43.13;;;;;;;12.35;64.16;99873.25;5057303;28;20658;-81
2022/11/15 11:16:48;;;;;;;53.63;39.47;;;;;;;12.65;63.69;99922.63;5055268;28;20104;-82
2022/11/15 11:19:18;;;;;;;53.08;38.13;;;;;;;12.70;64.22;99930.84;5038052;28;20036;-81
2022/11/15 11:21:59;;;;;;;53.08;39.80;;;;;;;12.97;64.24;99986.88;5051372;28;20039;-81
2022/11/15 11:24:33;;;;;;;53.70;39.05;;;;;;;12.94;64.28;99981.94;5058298;28;20182;-81
2022/11/15 11:27:25;;;;;;;50.47;37.15;;;;;;;12.56;64.18;99918.38;5064113;28;20103;-81
2022/11/15 11:29:53;;;;;;;55.72;41.38;;;;;;;12.87;64.34;99973.06;5068113;28;20048;-81
2022/11/15 11:32:27;;;;;;;57.17;39.58;;;;;;;12.84;64.49;99962.81;5073366;28;20024;-81